createdAt,value
2022-09-24T00:00:16.249Z,12.45
2022-09-24T00:01:16.684Z,12.46
2022-09-24T00:02:17.081Z,12.46
2022-09-24T00:03:17.397Z,12.49
2022-09-24T00:04:17.748Z,12.47
2022-09-24T00:05:18.057Z,12.47
2022-09-24T00:06:18.417Z,12.49
2022-09-24T00:07:18.794Z,12.46
2022-09-24T00:08:19.140Z,12.47
2022-09-24T00:09:19.520Z,12.49
2022-09-24T00:10:19.838Z,12.47
2022-09-24T00:11:20.200Z,12.49
2022-09-24T00:12:20.567Z,12.50
2022-09-24T00:13:20.911Z,12.49
2022-09-24T00:14:21.261Z,12.49
2022-09-24T00:15:21.610Z,12.47
2022-09-24T00:16:22.028Z,12.49
2022-09-24T00:17:22.344Z,12.47
2022-09-24T00:18:22.692Z,12.49
2022-09-24T00:19:23.041Z,12.49
2022-09-24T00:20:23.394Z,12.50
2022-09-24T00:21:23.774Z,12.55
2022-09-24T00:22:24.142Z,12.55
2022-09-24T00:23:24.488Z,12.55
2022-09-24T00:24:24.837Z,12.57
2022-09-24T00:25:25.223Z,12.55
2022-09-24T00:26:25.583Z,12.58
2022-09-24T00:27:25.943Z,12.60
2022-09-24T00:28:26.283Z,12.58
2022-09-24T00:29:26.675Z,12.60
2022-09-24T00:30:27.011Z,12.57
2022-09-24T00:31:27.472Z,12.55
2022-09-24T00:32:27.745Z,12.54
2022-09-24T00:33:28.090Z,12.53
2022-09-24T00:34:28.435Z,12.53
2022-09-24T00:35:28.784Z,12.50
2022-09-24T00:36:29.331Z,12.49
2022-09-24T00:37:29.499Z,12.49
2022-09-24T00:38:29.865Z,12.49
2022-09-24T00:39:30.219Z,12.47
2022-09-24T00:40:30.677Z,12.49
2022-09-24T00:41:30.969Z,12.50
2022-09-24T00:42:31.341Z,12.54
2022-09-24T00:43:32.330Z,12.55
2022-09-24T00:44:32.071Z,12.58
2022-09-24T00:45:32.430Z,12.58
2022-09-24T00:46:32.855Z,12.58
2022-09-24T00:47:33.170Z,12.60
2022-09-24T00:48:33.517Z,12.57
2022-09-24T00:49:33.863Z,12.57
2022-09-24T00:50:34.301Z,12.57
2022-09-24T00:51:34.570Z,12.55
2022-09-24T00:52:34.940Z,12.54
2022-09-24T00:53:35.281Z,12.54
2022-09-24T00:54:35.634Z,12.53
2022-09-24T00:55:35.980Z,12.49
2022-09-24T00:56:36.364Z,12.49
2022-09-24T00:57:36.759Z,12.49
2022-09-24T00:58:37.097Z,12.50
2022-09-24T00:59:37.453Z,12.49
2022-09-24T01:00:37.924Z,12.50
2022-09-24T01:01:38.260Z,12.49
2022-09-24T01:02:38.603Z,12.49
2022-09-24T01:03:38.924Z,12.49
2022-09-24T01:04:39.275Z,12.47
2022-09-24T01:05:39.625Z,12.47
2022-09-24T01:06:39.991Z,12.47
2022-09-24T01:07:40.352Z,12.46
2022-09-24T01:08:40.700Z,12.46
2022-09-24T01:09:41.045Z,12.43
2022-09-24T01:10:41.405Z,12.42
2022-09-24T01:11:41.764Z,12.42
2022-09-24T01:12:42.128Z,12.42
2022-09-24T01:13:43.774Z,12.43
2022-09-24T01:14:42.830Z,12.43
2022-09-24T01:15:43.258Z,12.42
2022-09-24T01:16:43.588Z,12.42
2022-09-24T01:17:43.934Z,12.42
2022-09-24T01:18:44.283Z,12.42
2022-09-24T01:19:44.635Z,12.40
2022-09-24T01:20:44.992Z,12.40
2022-09-24T01:21:45.338Z,12.42
2022-09-24T01:22:45.714Z,12.40
2022-09-24T01:23:48.734Z,12.40
2022-09-24T01:24:46.432Z,12.39
2022-09-24T01:25:46.788Z,12.39
2022-09-24T01:26:47.140Z,12.40
2022-09-24T01:27:47.507Z,12.37
2022-09-24T01:28:47.863Z,12.36
2022-09-24T01:29:48.220Z,12.36
2022-09-24T01:30:48.570Z,12.35
2022-09-24T01:31:48.960Z,12.35
2022-09-24T01:32:49.301Z,12.35
2022-09-24T01:33:49.642Z,12.36
2022-09-24T01:34:49.992Z,12.32
2022-09-24T01:35:50.345Z,12.35
2022-09-24T01:36:50.700Z,12.35
2022-09-24T01:37:51.068Z,12.35
2022-09-24T01:38:51.413Z,12.35
2022-09-24T01:39:51.764Z,12.36
2022-09-24T01:40:52.166Z,12.36
2022-09-24T01:41:52.484Z,12.35
2022-09-24T01:42:53.841Z,12.35
2022-09-24T01:43:53.209Z,12.36
2022-09-24T01:44:53.561Z,12.35
2022-09-24T01:45:53.907Z,12.36
2022-09-24T01:46:54.317Z,12.35
2022-09-24T01:47:54.646Z,12.35
2022-09-24T01:48:54.983Z,12.35
2022-09-24T01:49:55.334Z,12.36
2022-09-24T01:50:55.684Z,12.35
2022-09-24T01:51:56.030Z,12.35
2022-09-24T01:52:56.396Z,12.36
2022-09-24T01:53:56.748Z,12.35
2022-09-24T01:54:57.098Z,12.36
2022-09-24T01:55:57.442Z,12.32
2022-09-24T01:56:57.825Z,12.36
2022-09-24T01:57:58.177Z,12.35
2022-09-24T01:58:58.530Z,12.36
2022-09-24T01:59:58.879Z,12.36
2022-09-24T02:00:59.291Z,12.37
2022-09-24T02:01:59.632Z,12.37
2022-09-24T02:02:59.969Z,12.36
2022-09-24T02:04:00.318Z,12.31
2022-09-24T02:05:00.664Z,12.29
2022-09-24T02:06:01.014Z,12.28
2022-09-24T02:07:01.370Z,12.25
2022-09-24T02:08:01.728Z,12.22
2022-09-24T02:09:02.083Z,12.22
2022-09-24T02:10:02.427Z,12.21
2022-09-24T02:11:02.782Z,12.20
2022-09-24T02:12:03.139Z,12.20
2022-09-24T02:13:03.493Z,12.18
2022-09-24T02:14:03.851Z,12.18
2022-09-24T02:15:04.200Z,12.21
2022-09-24T02:16:04.584Z,12.20
2022-09-24T02:17:04.927Z,12.17
2022-09-24T02:18:05.327Z,12.20
2022-09-24T02:19:05.630Z,12.20
2022-09-24T02:20:05.973Z,12.20
2022-09-24T02:21:06.324Z,12.20
2022-09-24T02:22:06.667Z,12.20
2022-09-24T02:23:07.033Z,12.18
2022-09-24T02:24:07.433Z,12.20
2022-09-24T02:25:07.753Z,12.20
2022-09-24T02:26:08.095Z,12.18
2022-09-24T02:27:08.443Z,12.21
2022-09-24T02:28:08.810Z,12.20
2022-09-24T02:29:09.155Z,12.20
2022-09-24T02:30:09.510Z,12.18
2022-09-24T02:31:09.941Z,12.17
2022-09-24T02:32:10.204Z,12.18
2022-09-24T02:33:10.617Z,12.18
2022-09-24T02:34:11.001Z,12.17
2022-09-24T02:35:11.317Z,12.17
2022-09-24T02:36:11.667Z,12.17
2022-09-24T02:37:12.030Z,12.17
2022-09-24T02:38:12.404Z,12.15
2022-09-24T02:39:12.747Z,12.15
2022-09-24T02:40:13.182Z,12.13
2022-09-24T02:41:13.454Z,12.13
2022-09-24T02:42:13.812Z,12.13
2022-09-24T02:43:14.173Z,12.15
2022-09-24T02:44:14.509Z,12.13
2022-09-24T02:45:14.870Z,12.13
2022-09-24T02:46:15.237Z,12.12
2022-09-24T02:47:15.575Z,12.10
2022-09-24T02:48:15.936Z,12.12
2022-09-24T02:49:16.277Z,12.10
2022-09-24T02:50:16.630Z,12.12
2022-09-24T02:51:16.985Z,12.09
2022-09-24T02:52:17.340Z,12.09
2022-09-24T02:53:17.728Z,12.10
2022-09-24T02:54:18.065Z,12.09
2022-09-24T02:55:18.415Z,12.10
2022-09-24T02:56:18.797Z,12.07
2022-09-24T02:57:19.148Z,12.07
2022-09-24T02:58:19.503Z,12.06
2022-09-24T02:59:19.859Z,12.03
2022-09-24T03:00:20.202Z,12.03
2022-09-24T03:01:20.614Z,12.02
2022-09-24T03:02:21.032Z,12.00
2022-09-24T03:03:21.344Z,11.99
2022-09-24T03:04:21.641Z,11.99
2022-09-24T03:05:22.010Z,11.97
2022-09-24T03:06:22.343Z,11.95
2022-09-24T03:07:22.704Z,11.94
2022-09-24T03:08:23.101Z,11.94
2022-09-24T03:09:23.443Z,11.90
2022-09-24T03:10:23.790Z,11.87
2022-09-24T03:11:24.144Z,11.86
2022-09-24T03:12:24.494Z,11.88
2022-09-24T03:13:24.875Z,11.86
2022-09-24T03:14:25.220Z,11.83
2022-09-24T03:15:25.589Z,11.84
2022-09-24T03:16:25.974Z,11.83
2022-09-24T03:17:26.284Z,11.81
2022-09-24T03:18:26.649Z,11.80
2022-09-24T03:19:26.989Z,11.78
2022-09-24T03:20:27.340Z,11.78
2022-09-24T03:21:27.704Z,11.77
2022-09-24T03:22:28.060Z,11.77
2022-09-24T03:23:28.431Z,11.78
2022-09-24T03:24:28.771Z,11.78
2022-09-24T03:25:29.136Z,11.77
2022-09-24T03:26:29.483Z,11.77
2022-09-24T03:27:29.841Z,11.77
2022-09-24T03:28:30.209Z,11.77
2022-09-24T03:29:30.559Z,11.77
2022-09-24T03:30:30.903Z,11.77
2022-09-24T03:31:31.328Z,11.75
2022-09-24T03:32:31.648Z,11.75
2022-09-24T03:33:32.022Z,11.78
2022-09-24T03:34:32.379Z,11.78
2022-09-24T03:35:32.736Z,11.78
2022-09-24T03:36:33.093Z,11.78
2022-09-24T03:37:33.445Z,11.78
2022-09-24T03:38:33.821Z,11.78
2022-09-24T03:39:34.170Z,11.78
2022-09-24T03:40:34.555Z,11.80
2022-09-24T03:41:34.889Z,11.78
2022-09-24T03:42:35.230Z,11.77
2022-09-24T03:43:35.597Z,11.78
2022-09-24T03:44:35.940Z,11.78
2022-09-24T03:45:36.292Z,11.78
2022-09-24T03:46:36.690Z,11.81
2022-09-24T03:47:37.006Z,11.80
2022-09-24T03:48:37.373Z,11.80
2022-09-24T03:49:37.727Z,11.80
2022-09-24T03:50:38.067Z,11.78
2022-09-24T03:51:38.428Z,11.78
2022-09-24T03:52:38.782Z,11.80
2022-09-24T03:53:39.154Z,11.80
2022-09-24T03:54:39.498Z,11.81
2022-09-24T03:55:39.859Z,11.80
2022-09-24T03:56:40.233Z,11.80
2022-09-24T03:57:40.594Z,11.81
2022-09-24T03:58:40.967Z,11.78
2022-09-24T03:59:41.319Z,11.78
2022-09-24T04:00:41.669Z,11.78
2022-09-24T04:01:42.048Z,11.78
2022-09-24T04:02:42.462Z,11.81
2022-09-24T04:03:42.753Z,11.78
2022-09-24T04:04:43.096Z,11.77
2022-09-24T04:05:43.474Z,11.77
2022-09-24T04:06:43.831Z,11.78
2022-09-24T04:07:44.177Z,11.77
2022-09-24T04:08:44.544Z,11.77
2022-09-24T04:09:44.888Z,11.75
2022-09-24T04:10:45.243Z,11.77
2022-09-24T04:11:45.598Z,11.75
2022-09-24T04:12:45.950Z,11.75
2022-09-24T04:13:46.332Z,11.73
2022-09-24T04:14:46.664Z,11.72
2022-09-24T04:15:47.055Z,11.73
2022-09-24T04:16:47.391Z,11.72
2022-09-24T04:17:47.753Z,11.72
2022-09-24T04:18:48.122Z,11.72
2022-09-24T04:19:48.467Z,11.75
2022-09-24T04:20:48.819Z,11.73
2022-09-24T04:21:49.179Z,11.72
2022-09-24T04:22:50.393Z,11.72
2022-09-24T04:23:49.920Z,11.72
2022-09-24T04:24:50.327Z,11.72
2022-09-24T04:25:50.637Z,11.72
2022-09-24T04:26:50.990Z,11.72
2022-09-24T04:27:51.342Z,11.72
2022-09-24T04:28:51.719Z,11.70
2022-09-24T04:29:52.064Z,11.72
2022-09-24T04:30:52.463Z,11.72
2022-09-24T04:31:52.926Z,11.73
2022-09-24T04:32:53.151Z,11.72
2022-09-24T04:33:53.529Z,11.70
2022-09-24T04:34:53.882Z,11.72
2022-09-24T04:35:54.247Z,11.72
2022-09-24T04:36:54.607Z,11.72
2022-09-24T04:37:54.981Z,11.72
2022-09-24T04:38:55.348Z,11.73
2022-09-24T04:39:55.702Z,11.73
2022-09-24T04:40:56.146Z,11.73
2022-09-24T04:41:56.458Z,11.77
2022-09-24T04:42:56.798Z,11.75
2022-09-24T04:43:57.200Z,11.75
2022-09-24T04:44:57.539Z,11.75
2022-09-24T04:45:57.661Z,11.75
2022-09-24T04:46:57.877Z,11.73
2022-09-24T04:47:58.182Z,11.72
2022-09-24T04:48:58.298Z,11.72
2022-09-24T04:49:58.459Z,11.72
2022-09-24T04:50:58.757Z,11.75
2022-09-24T04:51:58.935Z,11.75
2022-09-24T04:52:59.101Z,11.75
2022-09-24T04:53:59.282Z,11.75
2022-09-24T04:54:59.445Z,11.75
2022-09-24T04:55:59.614Z,11.75
2022-09-24T04:56:59.784Z,11.77
2022-09-24T04:58:00.075Z,11.77
2022-09-24T04:59:00.260Z,11.77
2022-09-24T05:00:00.515Z,11.77
2022-09-24T05:01:00.703Z,11.75
2022-09-24T05:02:03.797Z,11.77
2022-09-24T05:03:01.250Z,11.78
2022-09-24T05:04:01.608Z,11.75
2022-09-24T05:05:01.643Z,11.77
2022-09-24T05:06:01.842Z,11.78
2022-09-24T05:07:02.003Z,11.80
2022-09-24T05:08:02.180Z,11.77
2022-09-24T05:09:02.388Z,11.75
2022-09-24T05:10:02.541Z,11.75
2022-09-24T05:11:02.728Z,11.78
2022-09-24T05:12:02.894Z,11.77
2022-09-24T05:13:03.206Z,11.78
2022-09-24T05:14:03.388Z,11.77
2022-09-24T05:15:03.552Z,11.77
2022-09-24T05:16:03.946Z,11.77
2022-09-24T05:17:04.022Z,11.77
2022-09-24T05:18:04.303Z,11.75
2022-09-24T05:19:04.650Z,11.77
2022-09-24T05:20:04.664Z,11.77
2022-09-24T05:21:04.957Z,11.77
2022-09-24T05:22:05.129Z,11.77
2022-09-24T05:23:05.425Z,11.78
2022-09-24T05:24:05.730Z,11.77
2022-09-24T05:25:05.886Z,11.78
2022-09-24T05:26:06.173Z,11.77
2022-09-24T05:27:06.474Z,11.80
2022-09-24T05:28:06.788Z,11.77
2022-09-24T05:29:07.173Z,11.77
2022-09-24T05:30:07.370Z,11.78
2022-09-24T05:31:07.717Z,11.78
2022-09-24T05:32:07.827Z,11.77
2022-09-24T05:33:08.004Z,11.78
2022-09-24T05:34:08.307Z,11.80
2022-09-24T05:35:08.580Z,11.78
2022-09-24T05:36:08.891Z,11.80
2022-09-24T05:37:09.071Z,11.78
2022-09-24T05:38:09.260Z,11.80
2022-09-24T05:39:09.538Z,11.80
2022-09-24T05:40:09.633Z,11.80
2022-09-24T05:41:09.906Z,11.80
2022-09-24T05:42:10.086Z,11.80
2022-09-24T05:43:10.388Z,11.81
2022-09-24T05:44:10.705Z,11.81
2022-09-24T05:45:11.028Z,11.80
2022-09-24T05:46:11.237Z,11.77
2022-09-24T05:47:11.355Z,11.80
2022-09-24T05:48:11.508Z,11.80
2022-09-24T05:49:11.852Z,11.78
2022-09-24T05:50:11.886Z,11.81
2022-09-24T05:51:12.081Z,11.83
2022-09-24T05:52:12.230Z,11.81
2022-09-24T05:53:12.417Z,11.81
2022-09-24T05:54:12.609Z,11.83
2022-09-24T05:55:12.788Z,11.81
2022-09-24T05:56:12.939Z,11.83
2022-09-24T05:57:13.104Z,11.83
2022-09-24T05:58:13.278Z,11.84
2022-09-24T05:59:13.472Z,11.81
2022-09-24T06:00:13.620Z,11.83
2022-09-24T06:01:13.791Z,11.83
2022-09-24T06:02:14.115Z,11.81
2022-09-24T06:03:14.264Z,11.83
2022-09-24T06:04:14.352Z,11.83
2022-09-24T06:05:14.474Z,11.83
2022-09-24T06:06:14.656Z,11.83
2022-09-24T06:07:14.827Z,11.83
2022-09-24T06:08:15.001Z,11.83
2022-09-24T06:09:15.209Z,11.84
2022-09-24T06:10:15.357Z,11.84
2022-09-24T06:11:15.535Z,11.84
2022-09-24T06:12:15.706Z,11.87
2022-09-24T06:13:15.881Z,11.90
2022-09-24T06:14:16.084Z,11.86
2022-09-24T06:15:16.242Z,11.87
2022-09-24T06:16:16.494Z,11.90
2022-09-24T06:17:16.591Z,11.88
2022-09-24T06:18:16.769Z,11.90
2022-09-24T06:19:16.966Z,11.90
2022-09-24T06:20:17.132Z,11.91
2022-09-24T06:21:17.328Z,11.90
2022-09-24T06:22:17.516Z,11.94
2022-09-24T06:23:17.701Z,11.94
2022-09-24T06:24:17.894Z,11.95
2022-09-24T06:25:18.060Z,11.97
2022-09-24T06:26:18.259Z,11.97
2022-09-24T06:27:18.454Z,12.00
2022-09-24T06:28:18.627Z,12.02
2022-09-24T06:29:18.847Z,12.00
2022-09-24T06:30:19.030Z,12.00
2022-09-24T06:31:19.271Z,11.99
2022-09-24T06:32:19.396Z,11.99
2022-09-24T06:33:19.589Z,12.00
2022-09-24T06:34:19.813Z,12.02
2022-09-24T06:35:19.952Z,12.00
2022-09-24T06:36:20.150Z,12.03
2022-09-24T06:37:20.334Z,12.03
2022-09-24T06:38:20.532Z,12.04
2022-09-24T06:39:20.775Z,12.04
2022-09-24T06:40:21.038Z,12.04
2022-09-24T06:41:21.136Z,12.04
2022-09-24T06:42:21.306Z,12.07
2022-09-24T06:43:21.485Z,12.07
2022-09-24T06:44:21.680Z,12.09
2022-09-24T06:45:21.852Z,12.12
2022-09-24T06:46:22.084Z,12.10
2022-09-24T06:47:22.231Z,12.10
2022-09-24T06:48:22.413Z,12.13
2022-09-24T06:49:22.625Z,12.12
2022-09-24T06:50:22.768Z,12.13
2022-09-24T06:51:22.951Z,12.17
2022-09-24T06:52:23.153Z,12.20
2022-09-24T06:53:23.338Z,12.18
2022-09-24T06:54:23.581Z,12.18
2022-09-24T06:55:23.691Z,12.20
2022-09-24T06:56:23.875Z,12.20
2022-09-24T06:57:28.661Z,12.22
2022-09-24T06:58:24.224Z,12.24
2022-09-24T06:59:24.439Z,12.27
2022-09-24T07:00:24.748Z,12.27
2022-09-24T07:01:24.815Z,12.27
2022-09-24T07:02:25.019Z,12.31
2022-09-24T07:03:25.159Z,12.31
2022-09-24T07:04:25.401Z,12.31
2022-09-24T07:05:25.555Z,12.32
2022-09-24T07:06:25.743Z,12.35
2022-09-24T07:07:25.937Z,12.36
2022-09-24T07:08:26.120Z,12.35
2022-09-24T07:09:26.339Z,12.35
2022-09-24T07:10:26.509Z,12.39
2022-09-24T07:11:26.660Z,12.37
2022-09-24T07:12:26.850Z,12.39
2022-09-24T07:13:27.050Z,12.43
2022-09-24T07:14:27.258Z,12.42
2022-09-24T07:15:27.413Z,12.39
2022-09-24T07:16:27.688Z,12.40
2022-09-24T07:17:32.877Z,12.40
2022-09-24T07:18:27.988Z,12.40
2022-09-24T07:19:28.197Z,12.42
2022-09-24T07:20:28.368Z,12.45
2022-09-24T07:21:28.564Z,12.43
2022-09-24T07:22:28.752Z,12.46
2022-09-24T07:23:28.954Z,12.45
2022-09-24T07:24:29.153Z,12.45
2022-09-24T07:25:29.305Z,12.47
2022-09-24T07:26:29.500Z,12.50
2022-09-24T07:27:29.688Z,12.53
2022-09-24T07:28:29.881Z,12.55
2022-09-24T07:29:30.089Z,12.57
2022-09-24T07:30:36.247Z,12.57
2022-09-24T07:31:36.638Z,12.57
2022-09-24T07:32:30.612Z,12.54
2022-09-24T07:33:30.795Z,12.55
2022-09-24T07:34:31.005Z,12.58
2022-09-24T07:35:31.160Z,12.61
2022-09-24T07:36:31.365Z,12.60
2022-09-24T07:37:31.539Z,12.61
2022-09-24T07:38:31.734Z,12.64
2022-09-24T07:39:31.959Z,12.62
2022-09-24T07:40:32.321Z,12.65
2022-09-24T07:41:32.315Z,12.64
2022-09-24T07:42:32.504Z,12.62
2022-09-24T07:43:32.691Z,12.62
2022-09-24T07:44:32.935Z,12.61
2022-09-24T07:45:33.072Z,12.61
2022-09-24T07:46:33.328Z,12.60
2022-09-24T07:47:33.465Z,12.57
2022-09-24T07:48:33.655Z,12.55
2022-09-24T07:49:33.868Z,12.57
2022-09-24T07:50:34.023Z,12.62
2022-09-24T07:51:34.184Z,12.62
2022-09-24T07:52:34.370Z,12.58
2022-09-24T07:53:34.545Z,12.60
2022-09-24T07:54:34.745Z,12.57
2022-09-24T07:55:34.941Z,12.58
2022-09-24T07:56:35.131Z,12.58
2022-09-24T07:57:35.323Z,12.60
2022-09-24T07:58:35.510Z,12.60
2022-09-24T07:59:35.726Z,12.57
2022-09-24T08:00:35.883Z,12.55
2022-09-24T08:01:36.126Z,12.55
2022-09-24T08:02:36.254Z,12.58
2022-09-24T08:03:36.467Z,12.58
2022-09-24T08:04:36.690Z,12.58
2022-09-24T08:05:36.840Z,12.60
2022-09-24T08:06:39.588Z,12.60
2022-09-24T08:07:37.234Z,12.58
2022-09-24T08:08:37.419Z,12.57
2022-09-24T08:09:37.631Z,12.61
2022-09-24T08:10:37.825Z,12.60
2022-09-24T08:11:38.024Z,12.60
2022-09-24T08:12:38.208Z,12.61
2022-09-24T08:13:38.397Z,12.62
2022-09-24T08:14:38.596Z,12.64
2022-09-24T08:15:38.933Z,12.65
2022-09-24T08:16:38.958Z,12.65
2022-09-24T08:17:39.159Z,12.65
2022-09-24T08:18:39.348Z,12.64
2022-09-24T08:19:39.550Z,12.67
2022-09-24T08:20:39.735Z,12.67
2022-09-24T08:21:39.937Z,12.68
2022-09-24T08:22:40.104Z,12.68
2022-09-24T08:23:40.305Z,12.70
2022-09-24T08:24:40.492Z,12.70
2022-09-24T08:25:40.698Z,12.68
2022-09-24T08:26:40.826Z,12.70
2022-09-24T08:27:41.030Z,12.70
2022-09-24T08:28:41.213Z,12.73
2022-09-24T08:29:41.413Z,12.76
2022-09-24T08:30:41.591Z,12.75
2022-09-24T08:31:41.792Z,12.75
2022-09-24T08:32:41.957Z,12.76
2022-09-24T08:33:42.159Z,12.80
2022-09-24T08:34:42.361Z,12.76
2022-09-24T08:35:42.550Z,12.79
2022-09-24T08:36:43.274Z,12.82
2022-09-24T08:37:42.935Z,12.87
2022-09-24T08:38:43.124Z,12.87
2022-09-24T08:39:43.336Z,12.93
2022-09-24T08:40:43.589Z,12.94
2022-09-24T08:41:43.686Z,12.95
2022-09-24T08:42:43.865Z,13.00
2022-09-24T08:43:44.592Z,13.03
2022-09-24T08:44:44.236Z,13.09
2022-09-24T08:45:44.431Z,13.13
2022-09-24T08:46:44.708Z,13.15
2022-09-24T08:47:44.820Z,13.15
2022-09-24T08:48:45.016Z,13.19
2022-09-24T08:49:45.223Z,13.20
2022-09-24T08:50:45.364Z,13.19
2022-09-24T08:51:45.578Z,13.23
2022-09-24T08:52:45.769Z,13.22
2022-09-24T08:53:45.950Z,13.30
2022-09-24T08:54:46.151Z,13.30
2022-09-24T08:55:46.343Z,13.35
2022-09-24T08:56:46.528Z,13.23
2022-09-24T08:57:46.723Z,13.28
2022-09-24T08:58:46.909Z,13.31
2022-09-24T08:59:47.095Z,13.28
2022-09-24T09:00:47.246Z,13.35
2022-09-24T09:01:47.549Z,13.39
2022-09-24T09:02:47.713Z,13.47
2022-09-24T09:03:47.775Z,13.46
2022-09-24T09:04:48.008Z,13.53
2022-09-24T09:05:49.660Z,13.56
2022-09-24T09:06:48.333Z,13.57
2022-09-24T09:07:48.524Z,13.56
2022-09-24T09:09:06.165Z,13.57
2022-09-24T09:09:48.913Z,13.62
2022-09-24T09:10:49.076Z,13.60
2022-09-24T09:11:49.258Z,13.60
2022-09-24T09:12:49.454Z,13.63
2022-09-24T09:13:49.796Z,13.70
2022-09-24T09:14:49.859Z,13.72
2022-09-24T09:15:50.045Z,13.78
2022-09-24T09:16:50.206Z,13.77
2022-09-24T09:17:50.395Z,13.79
2022-09-24T09:18:50.598Z,13.74
2022-09-24T09:19:53.724Z,13.65
2022-09-24T09:20:50.964Z,13.74
2022-09-24T09:21:51.173Z,13.83
2022-09-24T09:22:51.384Z,13.87
2022-09-24T09:23:51.581Z,13.83
2022-09-24T09:24:51.808Z,13.90
2022-09-24T09:25:51.976Z,13.95
2022-09-24T09:26:52.190Z,13.96
2022-09-24T09:27:52.352Z,14.04
2022-09-24T09:28:52.554Z,14.08
2022-09-24T09:29:52.786Z,14.17
2022-09-24T09:30:53.055Z,14.12
2022-09-24T09:31:56.365Z,14.20
2022-09-24T09:32:53.435Z,14.28
2022-09-24T09:33:53.548Z,14.40
2022-09-24T09:34:53.759Z,14.43
2022-09-24T09:35:53.912Z,14.37
2022-09-24T09:36:54.120Z,14.35
2022-09-24T09:37:54.331Z,14.33
2022-09-24T09:38:54.545Z,14.28
2022-09-24T09:39:54.759Z,14.32
2022-09-24T09:40:54.969Z,14.18
2022-09-24T09:41:55.122Z,14.20
2022-09-24T09:42:55.334Z,14.26
2022-09-24T09:43:55.525Z,14.30
2022-09-24T09:44:55.732Z,14.26
2022-09-24T09:45:55.908Z,14.29
2022-09-24T09:46:56.180Z,14.26
2022-09-24T09:47:56.325Z,14.26
2022-09-24T09:48:56.541Z,14.35
2022-09-24T09:49:56.786Z,14.35
2022-09-24T09:50:56.965Z,14.33
2022-09-24T09:51:57.169Z,14.32
2022-09-24T09:52:57.369Z,14.26
2022-09-24T09:53:57.565Z,14.28
2022-09-24T09:54:57.770Z,14.28
2022-09-24T09:55:57.935Z,14.25
2022-09-24T09:56:58.098Z,14.17
2022-09-24T09:57:58.296Z,14.17
2022-09-24T09:58:58.508Z,14.20
2022-09-24T09:59:58.701Z,14.08
2022-09-24T10:00:58.886Z,14.00
2022-09-24T10:01:59.125Z,13.97
2022-09-24T10:02:59.390Z,13.89
2022-09-24T10:03:59.450Z,13.75
2022-09-24T10:04:59.718Z,13.72
2022-09-24T10:05:59.834Z,13.70
2022-09-24T10:07:00.142Z,13.65
2022-09-24T10:08:00.219Z,13.60
2022-09-24T10:09:00.401Z,13.56
2022-09-24T10:10:00.600Z,13.56
2022-09-24T10:11:00.756Z,13.54
2022-09-24T10:12:00.938Z,13.52
2022-09-24T10:13:01.118Z,13.47
2022-09-24T10:14:01.423Z,13.44
2022-09-24T10:15:01.514Z,13.41
2022-09-24T10:16:01.769Z,13.39
2022-09-24T10:17:01.845Z,13.44
2022-09-24T10:18:02.028Z,13.46
2022-09-24T10:19:02.234Z,13.49
2022-09-24T10:20:02.431Z,13.49
2022-09-24T10:21:02.645Z,13.53
2022-09-24T10:22:02.808Z,13.54
2022-09-24T10:23:03.182Z,13.59
2022-09-24T10:24:03.197Z,13.62
2022-09-24T10:25:03.396Z,13.60
2022-09-24T10:26:03.532Z,13.60
2022-09-24T10:27:03.722Z,13.63
2022-09-24T10:28:03.910Z,13.68
2022-09-24T10:29:04.095Z,13.70
2022-09-24T10:30:04.317Z,13.70
2022-09-24T10:31:04.521Z,13.71
2022-09-24T10:32:04.652Z,13.70
2022-09-24T10:33:04.841Z,13.67
2022-09-24T10:34:05.043Z,13.72
2022-09-24T10:35:05.246Z,13.71
2022-09-24T10:36:05.434Z,13.71
2022-09-24T10:37:10.825Z,13.74
2022-09-24T10:38:05.804Z,13.77
2022-09-24T10:39:05.997Z,13.79
2022-09-24T10:40:06.282Z,13.81
2022-09-24T10:41:06.387Z,13.77
2022-09-24T10:42:06.586Z,13.77
2022-09-24T10:43:06.767Z,13.72
2022-09-24T10:44:06.925Z,13.74
2022-09-24T10:45:07.124Z,13.68
2022-09-24T10:46:07.333Z,13.67
2022-09-24T10:47:07.567Z,13.68
2022-09-24T10:48:07.644Z,13.71
2022-09-24T10:49:07.832Z,13.70
2022-09-24T10:50:08.045Z,13.67
2022-09-24T10:51:08.196Z,13.70
2022-09-24T10:52:08.403Z,13.72
2022-09-24T10:53:08.594Z,13.77
2022-09-24T10:54:08.825Z,13.85
2022-09-24T10:55:08.957Z,13.89
2022-09-24T10:56:09.110Z,13.86
2022-09-24T10:57:09.305Z,13.85
2022-09-24T10:58:09.571Z,13.89
2022-09-24T10:59:09.692Z,13.85
2022-09-24T11:00:09.911Z,13.86
2022-09-24T11:01:10.069Z,13.89
2022-09-24T11:02:10.308Z,13.87
2022-09-24T11:03:10.503Z,13.95
2022-09-24T11:04:10.678Z,13.93
2022-09-24T11:05:10.899Z,13.95
2022-09-24T11:06:11.046Z,14.00
2022-09-24T11:07:11.231Z,14.07
2022-09-24T11:08:11.449Z,14.05
2022-09-24T11:09:11.601Z,14.10
2022-09-24T11:10:11.802Z,14.14
2022-09-24T11:11:11.975Z,14.22
2022-09-24T11:12:12.157Z,14.23
2022-09-24T11:13:12.346Z,14.30
2022-09-24T11:14:12.593Z,14.29
2022-09-24T11:15:12.740Z,14.32
2022-09-24T11:16:12.968Z,14.14
2022-09-24T11:17:13.109Z,14.18
2022-09-24T11:18:13.309Z,14.28
2022-09-24T11:19:13.521Z,14.36
2022-09-24T11:20:13.783Z,14.41
2022-09-24T11:21:13.921Z,14.47
2022-09-24T11:22:14.139Z,14.63
2022-09-24T11:23:14.334Z,14.63
2022-09-24T11:24:14.510Z,14.62
2022-09-24T11:25:14.760Z,14.65
2022-09-24T11:26:14.932Z,14.63
2022-09-24T11:27:15.140Z,14.70
2022-09-24T11:28:15.343Z,14.62
2022-09-24T11:29:15.557Z,14.68
2022-09-24T11:30:15.776Z,14.60
2022-09-24T11:31:16.025Z,14.66
2022-09-24T11:32:16.153Z,14.78
2022-09-24T11:33:20.681Z,14.73
2022-09-24T11:34:16.568Z,14.79
2022-09-24T11:35:16.784Z,14.84
2022-09-24T11:36:16.989Z,14.84
2022-09-24T11:37:17.150Z,14.89
2022-09-24T11:38:17.366Z,14.97
2022-09-24T11:39:17.520Z,14.96
2022-09-24T11:40:17.771Z,14.91
2022-09-24T11:41:17.905Z,14.79
2022-09-24T11:42:18.111Z,14.86
2022-09-24T11:43:18.357Z,14.89
2022-09-24T11:44:18.562Z,14.82
2022-09-24T11:45:18.777Z,14.86
2022-09-24T11:46:19.107Z,14.92
2022-09-24T11:47:19.187Z,14.96
2022-09-24T11:48:19.371Z,15.06
2022-09-24T11:49:19.554Z,15.14
2022-09-24T11:50:19.757Z,15.11
2022-09-24T11:51:19.912Z,15.14
2022-09-24T11:52:20.125Z,15.00
2022-09-24T11:53:20.328Z,15.03
2022-09-24T11:54:20.534Z,15.14
2022-09-24T11:55:20.770Z,15.06
2022-09-24T11:56:20.937Z,15.03
2022-09-24T11:57:21.152Z,14.85
2022-09-24T11:58:21.364Z,14.85
2022-09-24T11:59:21.567Z,14.73
2022-09-24T12:00:21.770Z,14.63
2022-09-24T12:01:21.979Z,14.68
2022-09-24T12:02:22.199Z,14.66
2022-09-24T12:03:26.223Z,14.60
2022-09-24T12:04:22.515Z,14.68
2022-09-24T12:05:22.783Z,14.73
2022-09-24T12:06:22.894Z,14.69
2022-09-24T12:07:23.087Z,14.70
2022-09-24T12:08:23.273Z,14.72
2022-09-24T12:09:23.454Z,14.69
2022-09-24T12:10:23.672Z,14.66
2022-09-24T12:11:23.824Z,14.66
2022-09-24T12:12:24.031Z,14.68
2022-09-24T12:13:24.215Z,14.73
2022-09-24T12:14:24.432Z,14.77
2022-09-24T12:15:24.595Z,14.72
2022-09-24T12:16:24.834Z,14.70
2022-09-24T12:17:24.932Z,14.78
2022-09-24T12:18:25.144Z,14.84
2022-09-24T12:19:25.349Z,14.78
2022-09-24T12:20:25.527Z,14.77
2022-09-24T12:21:25.716Z,14.79
2022-09-24T12:22:25.899Z,14.82
2022-09-24T12:23:26.138Z,14.85
2022-09-24T12:24:26.319Z,14.82
2022-09-24T12:25:26.530Z,14.86
2022-09-24T12:26:26.686Z,14.88
2022-09-24T12:27:26.884Z,14.89
2022-09-24T12:28:27.089Z,14.85
2022-09-24T12:29:27.284Z,14.81
2022-09-24T12:30:27.522Z,14.72
2022-09-24T12:31:27.794Z,14.73
2022-09-24T12:32:27.856Z,14.68
2022-09-24T12:33:28.050Z,14.59
2022-09-24T12:34:28.248Z,14.60
2022-09-24T12:35:28.459Z,14.60
2022-09-24T12:36:28.610Z,14.60
2022-09-24T12:37:28.810Z,14.63
2022-09-24T12:38:29.001Z,14.55
2022-09-24T12:39:29.205Z,14.55
2022-09-24T12:40:29.482Z,14.54
2022-09-24T12:41:29.561Z,14.59
2022-09-24T12:42:29.753Z,14.59
2022-09-24T12:43:29.941Z,14.60
2022-09-24T12:44:30.191Z,14.62
2022-09-24T12:45:30.354Z,14.62
2022-09-24T12:46:30.602Z,14.65
2022-09-24T12:47:30.752Z,14.69
2022-09-24T12:48:30.926Z,14.72
2022-09-24T12:49:31.098Z,14.78
2022-09-24T12:50:31.292Z,14.81
2022-09-24T12:51:31.466Z,14.86
2022-09-24T12:52:31.663Z,14.82
2022-09-24T12:53:31.832Z,14.81
2022-09-24T12:54:32.028Z,14.82
2022-09-24T12:55:32.230Z,14.82